Naval Base, Virginia
Current Conditions -  °F | °C
As of 7:59 PM on Monday 22 Dec 2014 (Local Time) from KNGU Reporting Station
Light Rain Light Rain  
Wind Chill: 42°   Ceiling: 400
Heat Index: 48°   Visibility: 3mi
Dew Point: 44°   Wind: 14mph
Humidity: 86%   Direction: 350°N
Pressure: 30.04"   Gusts: NA
Location:  36.9343°N, 76.284°W
Report Text: KNGU 230059Z 35012KT 3SM -RA BR OVC004 09/07 A3004 RMK AO2 DZE25RAB25 SLP173 P0003 T00890067
Loading
Personal Weather Stations






























Interactive Weather Map New forecast layout! Learn more

10-Day Weather Forecast

Advertisements
Track Severe Weather on mobile